Time;durP1;ratioP1;P1;durP2;ratioP2;P2;SDS_P1;SDS_P2;PMS_P1;PMS_P2;Temp;Humidity;BMP_temperature;BMP_pressure;BME280_temperature;BME280_humidity;BME280_pressure;Samples;Min_cycle;Max_cycle;Signal;HPM_P1;HPM_P2
2022/09/23 00:00:23;;;;;;;7.47;1.27;;;13.80;99.90;;;;;;4990397;28;20038;-62
2022/09/23 00:02:51;;;;;;;0.70;0.63;;;13.80;99.90;;;;;;4990555;28;20084;-62
2022/09/23 00:05:17;;;;;;;1.67;1.10;;;13.80;99.90;;;;;;4989338;28;20117;-62
2022/09/23 00:07:43;;;;;;;2.17;1.13;;;13.80;99.90;;;;;;5002463;28;20026;-61
2022/09/23 00:10:09;;;;;;;1.52;1.08;;;13.90;99.90;;;;;;4996641;28;20069;-61
2022/09/23 00:12:35;;;;;;;2.25;1.20;;;13.90;99.90;;;;;;4999076;28;20084;-61
2022/09/23 00:15:02;;;;;;;2.30;1.27;;;13.90;99.90;;;;;;5004957;28;20430;-61
2022/09/23 00:17:28;;;;;;;3.70;1.30;;;13.90;99.90;;;;;;4996409;28;20029;-62
2022/09/23 00:19:54;;;;;;;1.88;1.77;;;14.00;99.90;;;;;;4991357;28;20401;-62
2022/09/23 00:22:20;;;;;;;1.38;1.27;;;14.10;99.90;;;;;;4994735;28;20022;-61
2022/09/23 00:24:46;;;;;;;1.90;1.30;;;14.20;99.90;;;;;;5002038;28;20096;-61
2022/09/23 00:27:12;;;;;;;1.55;1.20;;;14.20;99.90;;;;;;4991625;28;20426;-61
2022/09/23 00:29:37;;;;;;;3.50;1.40;;;14.20;99.90;;;;;;4985751;28;20022;-61
2022/09/23 00:32:03;;;;;;;3.47;1.50;;;14.20;99.90;;;;;;4995107;28;20022;-61
2022/09/23 00:34:30;;;;;;;1.95;1.10;;;14.20;99.90;;;;;;5004931;28;20389;-61
2022/09/23 00:36:56;;;;;;;6.72;2.08;;;14.10;99.90;;;;;;5003440;28;20068;-61
2022/09/23 00:39:23;;;;;;;1.80;1.42;;;14.10;99.90;;;;;;4995386;28;20085;-62
2022/09/23 00:41:49;;;;;;;1.52;1.30;;;14.00;99.90;;;;;;5004485;28;20034;-62
2022/09/23 00:44:42;;;;;;;1.73;1.33;;;14.00;99.90;;;;;;4996044;28;20093;-61
2022/09/23 00:47:18;;;;;;;4.38;1.30;;;14.00;99.90;;;;;;4993035;28;20022;-61
2022/09/23 00:49:45;;;;;;;2.05;1.30;;;14.00;99.90;;;;;;4997122;28;20590;-61
2022/09/23 00:52:16;;;;;;;2.92;1.48;;;14.00;99.90;;;;;;4993007;28;20093;-62
2022/09/23 00:54:45;;;;;;;3.08;1.38;;;14.00;99.90;;;;;;4987299;28;20029;-61
2022/09/23 00:57:12;;;;;;;3.95;0.98;;;14.00;99.90;;;;;;4997335;28;20026;-61
2022/09/23 00:59:38;;;;;;;1.60;1.50;;;13.90;99.90;;;;;;4985951;28;20034;-61
2022/09/23 01:02:05;;;;;;;1.45;1.25;;;13.90;99.90;;;;;;4990884;28;20023;-61
2022/09/23 01:04:32;;;;;;;2.13;1.70;;;13.90;99.90;;;;;;4979538;28;20030;-61
2022/09/23 01:06:57;;;;;;;2.22;1.35;;;13.90;99.90;;;;;;4992322;28;20022;-62
2022/09/23 01:09:24;;;;;;;1.25;1.15;;;13.80;99.90;;;;;;4993916;28;20371;-60
2022/09/23 01:12:05;;;;;;;1.75;1.45;;;13.80;99.90;;;;;;5002419;28;20025;-60
2022/09/23 01:14:56;;;;;;;5.70;1.40;;;13.80;99.90;;;;;;4986405;28;20030;-61
2022/09/23 01:17:58;;;;;;;6.13;1.60;;;13.80;99.90;;;;;;4990945;28;20022;-61
2022/09/23 01:20:35;;;;;;;1.83;1.02;;;13.80;99.90;;;;;;5002433;28;20048;-61
2022/09/23 01:23:07;;;;;;;3.03;1.08;;;13.80;99.90;;;;;;4992118;28;20030;-62
2022/09/23 01:26:03;;;;;;;2.60;1.38;;;13.80;99.90;;;;;;5003895;28;20381;-61
2022/09/23 01:28:50;;;;;;;1.95;1.20;;;13.80;99.90;;;;;;4997034;28;20042;-61
2022/09/23 01:31:28;;;;;;;1.90;1.27;;;13.80;99.90;;;;;;4992044;28;20435;-61
2022/09/23 01:34:10;;;;;;;1.33;1.23;;;13.80;99.90;;;;;;4996903;28;20026;-61
2022/09/23 01:36:45;;;;;;;2.67;1.08;;;13.80;99.90;;;;;;4988158;28;20026;-61
2022/09/23 01:39:38;;;;;;;1.38;1.00;;;13.80;99.90;;;;;;5008456;28;20482;-60
2022/09/23 01:42:08;;;;;;;1.85;1.15;;;13.90;99.90;;;;;;4988912;28;20096;-61
2022/09/23 01:44:47;;;;;;;2.88;1.42;;;13.90;99.90;;;;;;5005481;28;20058;-60
2022/09/23 01:47:36;;;;;;;2.63;1.27;;;13.90;99.90;;;;;;4993828;28;20038;-60
2022/09/23 01:50:55;;;;;;;1.83;1.40;;;13.90;99.90;;;;;;4994732;28;20018;-62
2022/09/23 01:53:01;;;;;;;1.95;1.17;;;13.90;99.90;;;;;;4997148;28;20031;-62
2022/09/23 01:55:32;;;;;;;5.28;1.30;;;13.90;99.90;;;;;;4988363;28;20084;-61
2022/09/23 01:58:20;;;;;;;3.13;1.17;;;14.00;99.90;;;;;;4992763;28;20041;-63
2022/09/23 02:00:59;;;;;;;2.80;1.13;;;14.00;99.90;;;;;;4996814;28;20038;-61
2022/09/23 02:03:32;;;;;;;2.13;1.20;;;14.10;99.90;;;;;;4993387;28;20391;-62
2022/09/23 02:06:01;;;;;;;3.97;1.63;;;14.10;99.90;;;;;;5002460;28;20038;-62
2022/09/23 02:08:50;;;;;;;1.60;1.50;;;14.10;99.90;;;;;;4989337;28;20080;-62
2022/09/23 02:11:17;;;;;;;3.53;1.40;;;14.00;99.90;;;;;;4995444;28;20037;-61
2022/09/23 02:13:57;;;;;;;2.17;1.30;;;14.00;99.90;;;;;;5005433;28;20380;-61
2022/09/23 02:16:30;;;;;;;1.50;1.30;;;14.00;99.90;;;;;;4988959;28;20109;-61
2022/09/23 02:19:05;;;;;;;1.33;1.20;;;14.00;99.90;;;;;;4992877;28;20066;-60
2022/09/23 02:21:41;;;;;;;1.63;0.80;;;14.00;99.90;;;;;;4984725;28;20042;-60
2022/09/23 02:24:17;;;;;;;1.90;1.20;;;14.10;99.90;;;;;;4994992;28;20061;-61
2022/09/23 02:27:07;;;;;;;5.70;1.42;;;14.00;99.90;;;;;;4993436;28;20110;-61
2022/09/23 02:29:56;;;;;;;2.95;1.48;;;14.10;99.90;;;;;;4992048;28;20037;-61
2022/09/23 02:32:34;;;;;;;2.15;1.40;;;14.20;99.90;;;;;;4998100;28;20432;-62
2022/09/23 02:35:16;;;;;;;4.05;1.48;;;14.20;99.90;;;;;;4999793;28;20049;-61
2022/09/23 02:38:09;;;;;;;5.90;1.42;;;14.20;99.90;;;;;;5003287;28;20026;-61
2022/09/23 02:40:41;;;;;;;4.35;1.30;;;14.20;99.90;;;;;;4989841;28;20503;-61
2022/09/23 02:43:18;;;;;;;2.17;1.45;;;14.20;99.90;;;;;;4999810;28;20060;-62
2022/09/23 02:45:45;;;;;;;1.83;1.20;;;14.20;99.90;;;;;;4998754;28;20031;-61
2022/09/23 02:48:29;;;;;;;1.85;1.42;;;14.20;99.90;;;;;;5008575;28;20048;-61
2022/09/23 02:51:01;;;;;;;4.00;1.15;;;14.10;99.90;;;;;;4992030;28;20026;-61
2022/09/23 02:53:27;;;;;;;5.00;1.60;;;14.10;99.90;;;;;;4994882;28;20110;-61
2022/09/23 02:55:53;;;;;;;1.88;1.30;;;14.20;99.90;;;;;;5011057;28;20033;-61
2022/09/23 02:58:19;;;;;;;2.72;1.50;;;14.20;99.90;;;;;;5002123;28;20359;-62
2022/09/23 03:01:00;;;;;;;2.58;1.92;;;14.30;99.90;;;;;;4996613;28;20038;-61
2022/09/23 03:03:48;;;;;;;2.65;1.55;;;14.40;99.90;;;;;;4993035;28;20014;-61
2022/09/23 03:06:37;;;;;;;5.10;2.00;;;14.50;99.90;;;;;;4992786;28;20027;-61
2022/09/23 03:09:11;;;;;;;3.70;1.75;;;14.60;99.90;;;;;;4986153;28;20157;-61
2022/09/23 03:11:40;;;;;;;3.00;2.03;;;14.60;99.90;;;;;;4991256;28;20026;-60
2022/09/23 03:14:18;;;;;;;2.85;1.90;;;14.60;99.90;;;;;;4991343;28;20406;-61
2022/09/23 03:16:55;;;;;;;3.25;1.90;;;14.70;99.90;;;;;;4992869;28;20081;-61
2022/09/23 03:19:33;;;;;;;2.85;1.58;;;14.80;99.90;;;;;;4989122;28;20041;-61
2022/09/23 03:22:01;;;;;;;4.00;1.83;;;14.90;99.90;;;;;;4994764;28;20030;-61
2022/09/23 03:24:31;;;;;;;2.20;1.70;;;14.90;99.90;;;;;;4986873;28;20026;-61
2022/09/23 03:27:00;;;;;;;2.03;1.50;;;14.90;99.90;;;;;;4990224;28;20084;-56
2022/09/23 03:29:27;;;;;;;7.07;1.60;;;14.80;99.90;;;;;;4988168;28;20160;-60
2022/09/23 03:31:55;;;;;;;5.00;1.88;;;14.80;99.90;;;;;;4989407;28;20022;-61
2022/09/23 03:34:25;;;;;;;2.75;2.00;;;14.80;99.90;;;;;;4989751;28;20030;-61
2022/09/23 03:37:00;;;;;;;2.88;2.30;;;14.70;99.90;;;;;;4984404;28;20027;-61
2022/09/23 03:39:34;;;;;;;5.55;2.60;;;14.70;99.90;;;;;;4983061;28;20042;-61
2022/09/23 03:42:15;;;;;;;2.45;2.08;;;14.70;99.90;;;;;;4988678;28;20486;-60
2022/09/23 03:44:46;;;;;;;4.13;2.35;;;14.70;99.90;;;;;;4990743;28;20110;-61
2022/09/23 03:47:14;;;;;;;1.88;1.52;;;14.70;99.90;;;;;;4982336;28;20206;-62
2022/09/23 03:49:44;;;;;;;5.25;1.67;;;14.70;99.90;;;;;;4989616;28;20055;-61
2022/09/23 03:52:10;;;;;;;1.60;1.45;;;14.70;99.90;;;;;;4986584;28;20046;-60
2022/09/23 03:54:36;;;;;;;1.73;1.33;;;14.70;99.90;;;;;;4983911;28;20042;-60
2022/09/23 03:57:02;;;;;;;2.30;1.42;;;14.60;99.90;;;;;;4989346;28;20080;-61
2022/09/23 03:59:31;;;;;;;3.55;1.52;;;14.60;99.90;;;;;;4988784;28;20069;-61
2022/09/23 04:01:58;;;;;;;2.05;1.58;;;14.60;99.90;;;;;;4990101;28;20023;-61
2022/09/23 04:04:25;;;;;;;4.63;2.28;;;14.50;99.90;;;;;;4988884;28;20468;-61
2022/09/23 04:06:51;;;;;;;1.73;1.50;;;14.50;99.90;;;;;;4990339;28;20460;-61
2022/09/23 04:09:17;;;;;;;2.50;1.65;;;14.50;99.90;;;;;;4992194;28;20183;-61
2022/09/23 04:11:42;;;;;;;3.47;2.15;;;14.50;99.90;;;;;;4989088;28;20493;-62
2022/09/23 04:14:09;;;;;;;2.45;2.03;;;14.50;99.90;;;;;;4987484;28;20113;-63
2022/09/23 04:16:34;;;;;;;3.50;2.92;;;14.40;99.90;;;;;;4987694;28;20034;-62
2022/09/23 04:19:00;;;;;;;2.45;2.25;;;14.50;99.90;;;;;;4990506;28;20027;-63
2022/09/23 04:21:26;;;;;;;2.95;2.40;;;14.50;99.90;;;;;;4986210;28;20026;-62
2022/09/23 04:23:52;;;;;;;2.53;1.50;;;14.50;99.90;;;;;;4990613;28;20109;-61
2022/09/23 04:26:18;;;;;;;2.88;1.90;;;14.50;99.90;;;;;;4984418;28;20109;-62
2022/09/23 04:28:43;;;;;;;5.18;2.38;;;14.40;99.90;;;;;;4988956;28;20030;-62
2022/09/23 04:31:09;;;;;;;4.22;3.33;;;14.50;99.90;;;;;;4988195;28;20581;-62
2022/09/23 04:33:36;;;;;;;4.82;3.00;;;14.40;99.90;;;;;;4988005;28;20615;-62
2022/09/23 04:36:02;;;;;;;6.53;3.13;;;14.30;99.90;;;;;;4989989;28;20058;-61
2022/09/23 04:38:28;;;;;;;4.75;3.22;;;14.30;99.90;;;;;;4988431;28;20046;-62
2022/09/23 04:40:54;;;;;;;4.32;2.70;;;14.30;99.90;;;;;;4989386;28;20486;-62
2022/09/23 04:43:22;;;;;;;2.83;1.95;;;14.30;99.90;;;;;;4984560;28;20050;-61
2022/09/23 04:45:58;;;;;;;4.50;2.72;;;14.30;99.90;;;;;;4989290;28;20053;-60
2022/09/23 04:48:24;;;;;;;4.53;3.00;;;14.30;99.90;;;;;;4987955;28;20034;-61
2022/09/23 04:50:50;;;;;;;5.28;3.50;;;14.20;99.90;;;;;;4989410;28;20467;-61
2022/09/23 04:53:16;;;;;;;7.05;3.38;;;14.20;99.90;;;;;;4986796;28;20046;-61
2022/09/23 04:55:42;;;;;;;3.80;3.17;;;14.10;99.90;;;;;;4987897;28;20050;-61
2022/09/23 04:58:08;;;;;;;6.70;3.75;;;14.10;99.90;;;;;;4983615;28;20023;-62
2022/09/23 05:00:35;;;;;;;5.15;2.80;;;14.10;99.90;;;;;;4982427;28;20498;-61
2022/09/23 05:03:01;;;;;;;6.22;3.45;;;14.10;99.90;;;;;;4985777;28;20364;-61
2022/09/23 05:05:28;;;;;;;7.97;3.78;;;14.10;99.90;;;;;;4985255;28;20042;-62
2022/09/23 05:07:54;;;;;;;3.92;3.05;;;14.00;99.90;;;;;;4986319;28;20030;-62
2022/09/23 05:10:21;;;;;;;4.22;3.13;;;14.00;99.90;;;;;;4983480;28;20113;-61
2022/09/23 05:12:47;;;;;;;6.97;3.25;;;14.10;99.90;;;;;;4985912;28;20034;-61
2022/09/23 05:15:14;;;;;;;5.15;2.92;;;14.10;99.90;;;;;;4985254;28;20042;-61
2022/09/23 05:17:43;;;;;;;4.93;2.97;;;14.10;99.90;;;;;;4987228;28;20355;-61
2022/09/23 05:20:10;;;;;;;7.20;3.80;;;14.10;99.90;;;;;;4977369;28;20164;-61
2022/09/23 05:22:36;;;;;;;5.40;4.00;;;14.00;99.90;;;;;;4983401;28;20371;-61
2022/09/23 05:25:02;;;;;;;7.97;3.60;;;14.00;99.90;;;;;;4986512;28;20027;-61
2022/09/23 05:27:28;;;;;;;6.75;3.90;;;14.00;99.90;;;;;;4984214;28;20054;-62
2022/09/23 05:29:54;;;;;;;5.65;3.30;;;14.00;99.90;;;;;;4976748;28;20054;-61
2022/09/23 05:32:20;;;;;;;6.32;2.92;;;14.00;99.90;;;;;;4984339;28;20077;-62
2022/09/23 05:34:46;;;;;;;4.05;3.30;;;14.10;99.90;;;;;;4986261;28;20394;-61
2022/09/23 05:37:12;;;;;;;7.38;3.10;;;14.20;99.90;;;;;;4986587;28;20553;-61
2022/09/23 05:39:38;;;;;;;7.07;3.10;;;14.30;99.90;;;;;;4984450;28;20042;-61
2022/09/23 05:42:04;;;;;;;6.60;2.63;;;14.50;99.90;;;;;;4984215;28;20352;-61
2022/09/23 05:44:30;;;;;;;5.97;2.60;;;14.50;99.90;;;;;;4984035;28;20092;-61
2022/09/23 05:46:56;;;;;;;2.88;2.38;;;14.50;99.90;;;;;;4984277;28;20022;-61
2022/09/23 05:49:22;;;;;;;4.85;3.60;;;14.70;99.90;;;;;;4983780;28;20035;-61
2022/09/23 05:51:47;;;;;;;4.95;2.80;;;14.70;99.90;;;;;;4982308;28;20061;-61
2022/09/23 05:54:13;;;;;;;9.15;3.15;;;14.90;99.90;;;;;;4986599;28;20061;-61
2022/09/23 05:56:39;;;;;;;6.28;2.92;;;14.90;99.90;;;;;;4986828;28;20029;-61
2022/09/23 05:59:05;;;;;;;3.72;1.80;;;14.90;99.90;;;;;;4983425;28;20045;-61
2022/09/23 06:01:33;;;;;;;3.72;2.30;;;14.90;99.90;;;;;;4985386;28;20054;-60
2022/09/23 06:07:49;;;;;;;3.55;2.00;;;15.00;99.90;;;;;;4943953;28;20514;-62
2022/09/23 06:10:16;;;;;;;24.92;8.98;;;15.00;99.90;;;;;;4944790;28;20066;-62
2022/09/23 06:12:43;;;;;;;9.65;2.85;;;15.10;99.90;;;;;;4929710;28;20043;-62
2022/09/23 06:15:10;;;;;;;6.65;2.15;;;15.00;99.90;;;;;;4951638;28;20035;-61
2022/09/23 06:17:36;;;;;;;3.17;1.88;;;15.10;99.90;;;;;;4946467;29;20074;-62
2022/09/23 06:20:02;;;;;;;4.45;1.95;;;15.10;99.90;;;;;;4950798;28;20063;-61
2022/09/23 06:22:28;;;;;;;4.68;2.20;;;15.20;99.90;;;;;;4946240;28;20125;-62
2022/09/23 06:24:53;;;;;;;8.98;1.98;;;15.20;99.90;;;;;;4950310;29;20039;-62
2022/09/23 06:27:19;;;;;;;6.75;3.03;;;15.20;99.90;;;;;;4945453;28;20027;-61
2022/09/23 06:29:45;;;;;;;4.55;2.70;;;15.30;99.90;;;;;;4948606;28;20047;-62
2022/09/23 06:32:10;;;;;;;4.45;2.90;;;15.30;99.90;;;;;;4950352;28;20031;-61
2022/09/23 06:34:36;;;;;;;5.68;2.80;;;15.30;99.90;;;;;;4948126;28;20031;-60
2022/09/23 06:37:02;;;;;;;7.88;2.72;;;15.20;99.90;;;;;;4950543;28;20103;-61
2022/09/23 06:39:28;;;;;;;5.28;3.40;;;15.20;99.90;;;;;;4943272;28;20155;-59
2022/09/23 06:41:58;;;;;;;9.00;3.58;;;15.20;99.90;;;;;;4942092;28;20491;-60
2022/09/23 06:44:23;;;;;;;5.57;3.33;;;15.20;99.90;;;;;;4974040;28;20055;-61
2022/09/23 06:46:50;;;;;;;4.28;3.17;;;15.30;99.90;;;;;;4988650;28;20081;-62
2022/09/23 06:49:15;;;;;;;4.85;2.60;;;15.30;99.90;;;;;;4991285;28;20045;-62
2022/09/23 06:51:41;;;;;;;7.68;3.03;;;15.40;99.90;;;;;;4991109;28;20035;-62
2022/09/23 06:54:07;;;;;;;12.63;3.70;;;15.30;99.90;;;;;;4991414;28;20037;-62
2022/09/23 06:56:33;;;;;;;4.47;3.05;;;15.40;99.90;;;;;;4988714;28;20058;-63
2022/09/23 06:58:58;;;;;;;8.20;3.88;;;15.40;99.90;;;;;;4989906;28;20038;-63
2022/09/23 07:01:24;;;;;;;7.85;3.53;;;15.40;99.90;;;;;;4989745;28;20049;-63
2022/09/23 07:03:50;;;;;;;9.23;3.03;;;15.50;99.90;;;;;;4990651;28;20030;-62
2022/09/23 07:06:16;;;;;;;9.77;3.55;;;15.50;99.90;;;;;;4988736;28;20026;-63
2022/09/23 07:08:45;;;;;;;6.22;2.97;;;15.50;99.90;;;;;;4989005;28;20360;-62
2022/09/23 07:11:12;;;;;;;7.82;3.10;;;15.50;99.90;;;;;;4990412;28;20505;-61
2022/09/23 07:13:39;;;;;;;4.18;2.65;;;15.60;99.90;;;;;;4988997;28;20422;-62
2022/09/23 07:16:05;;;;;;;7.43;3.22;;;15.60;99.90;;;;;;4990589;28;20084;-62
2022/09/23 07:18:33;;;;;;;9.70;4.53;;;15.50;99.90;;;;;;4981551;28;20038;-62
2022/09/23 07:21:18;;;;;;;6.00;4.07;;;15.60;99.90;;;;;;4979039;28;20030;-62
2022/09/23 07:23:52;;;;;;;5.47;3.30;;;15.60;99.90;;;;;;4987002;28;20050;-61
2022/09/23 07:26:19;;;;;;;8.48;2.83;;;15.70;99.90;;;;;;4984235;28;20043;-62
2022/09/23 07:28:45;;;;;;;7.97;3.05;;;15.70;99.90;;;;;;4985357;28;20033;-61
2022/09/23 07:31:16;;;;;;;6.10;2.90;;;15.70;99.90;;;;;;4985795;28;20080;-61
2022/09/23 07:33:42;;;;;;;6.65;3.22;;;15.70;99.90;;;;;;4986979;28;20092;-62
2022/09/23 07:36:17;;;;;;;7.03;3.38;;;15.70;99.90;;;;;;4985923;28;20018;-62
2022/09/23 07:38:43;;;;;;;6.93;2.95;;;15.70;99.90;;;;;;4985591;28;20052;-62
2022/09/23 07:41:11;;;;;;;3.72;2.35;;;15.80;99.90;;;;;;4986733;28;20485;-60
2022/09/23 07:43:39;;;;;;;8.38;2.38;;;15.80;99.90;;;;;;4984504;28;20058;-62
2022/09/23 07:46:09;;;;;;;2.67;2.30;;;15.80;99.90;;;;;;4985998;28;20030;-61
2022/09/23 07:48:36;;;;;;;5.95;2.88;;;15.80;99.90;;;;;;4982292;28;20532;-61
2022/09/23 07:51:07;;;;;;;5.53;2.55;;;15.80;99.90;;;;;;4985969;28;20022;-61
2022/09/23 07:53:33;;;;;;;5.05;2.10;;;15.80;99.90;;;;;;4985894;28;20125;-62
2022/09/23 07:55:59;;;;;;;4.00;3.60;;;15.80;99.90;;;;;;4987081;28;20030;-62
2022/09/23 07:58:25;;;;;;;2.58;2.00;;;15.70;99.90;;;;;;4984938;28;20450;-63
2022/09/23 08:00:52;;;;;;;7.35;2.80;;;15.70;99.90;;;;;;4983268;28;20066;-64
2022/09/23 08:03:18;;;;;;;7.25;2.63;;;15.70;99.90;;;;;;4983897;28;20023;-64
2022/09/23 08:05:45;;;;;;;7.25;3.80;;;15.80;99.90;;;;;;4986637;28;20065;-65
2022/09/23 08:08:12;;;;;;;9.73;2.88;;;15.70;99.90;;;;;;4985155;28;20482;-64
2022/09/23 08:10:39;;;;;;;5.40;2.63;;;15.70;99.90;;;;;;4984660;28;20057;-65
2022/09/23 08:13:05;;;;;;;6.95;2.40;;;15.70;99.90;;;;;;4986320;28;20022;-65
2022/09/23 08:15:30;;;;;;;4.13;1.92;;;15.60;99.90;;;;;;4979460;28;20026;-63
2022/09/23 08:17:58;;;;;;;4.15;2.38;;;15.50;99.90;;;;;;4981358;28;20034;-64
2022/09/23 08:20:43;;;;;;;4.32;1.70;;;15.50;99.90;;;;;;4982765;28;20449;-63
2022/09/23 08:23:11;;;;;;;6.32;2.10;;;15.50;99.90;;;;;;4987177;28;20081;-63
2022/09/23 08:25:37;;;;;;;5.50;3.22;;;15.40;99.90;;;;;;4983761;28;20073;-62
2022/09/23 08:28:03;;;;;;;4.57;2.28;;;15.50;99.90;;;;;;4977354;28;20062;-62
2022/09/23 08:30:28;;;;;;;3.75;2.75;;;15.50;99.90;;;;;;4984256;28;20528;-61
2022/09/23 08:32:54;;;;;;;5.32;2.70;;;15.50;99.90;;;;;;4983830;28;20551;-61
2022/09/23 08:35:20;;;;;;;3.80;2.40;;;15.50;99.90;;;;;;4984566;28;20179;-62
2022/09/23 08:37:46;;;;;;;2.47;2.05;;;15.50;99.90;;;;;;4986027;28;20482;-64
2022/09/23 08:40:12;;;;;;;6.03;2.38;;;15.50;99.90;;;;;;4986946;28;20050;-61
2022/09/23 08:42:42;;;;;;;7.00;3.17;;;15.50;99.90;;;;;;4980284;28;20073;-63
2022/09/23 08:45:18;;;;;;;5.53;2.20;;;15.50;99.90;;;;;;4983017;28;20038;-63
2022/09/23 08:48:14;;;;;;;6.95;2.72;;;15.50;99.90;;;;;;4985005;28;20042;-64
2022/09/23 08:51:03;;;;;;;3.80;2.42;;;15.60;99.90;;;;;;4981217;28;20023;-65
2022/09/23 08:53:33;;;;;;;4.10;2.25;;;15.60;99.90;;;;;;4982131;28;20031;-64
2022/09/23 08:56:05;;;;;;;3.53;1.52;;;15.50;99.90;;;;;;4985330;28;20019;-63
2022/09/23 08:59:08;;;;;;;5.53;2.03;;;15.50;99.90;;;;;;4980013;28;20085;-63
2022/09/23 09:01:42;;;;;;;3.95;2.25;;;15.50;99.90;;;;;;4980696;28;20058;-64
2022/09/23 09:04:35;;;;;;;3.42;2.00;;;15.60;99.90;;;;;;4984332;28;20033;-64
2022/09/23 09:07:08;;;;;;;10.40;8.10;;;15.60;99.90;;;;;;4982938;28;20053;-64
2022/09/23 09:09:40;;;;;;;4.47;3.35;;;15.50;99.90;;;;;;4981458;28;20042;-64
2022/09/23 09:12:14;;;;;;;4.95;1.55;;;15.50;99.90;;;;;;4983242;28;20027;-63
2022/09/23 09:15:02;;;;;;;2.00;1.20;;;15.50;99.90;;;;;;4982477;28;20117;-62
2022/09/23 09:17:27;;;;;;;5.22;1.70;;;15.40;99.90;;;;;;4981271;28;20101;-62
2022/09/23 09:19:56;;;;;;;2.50;1.52;;;15.40;99.90;;;;;;4984529;28;20126;-62
2022/09/23 09:22:47;;;;;;;6.05;1.67;;;15.30;99.90;;;;;;4983693;28;20023;-61
2022/09/23 09:25:22;;;;;;;6.20;1.50;;;15.30;99.90;;;;;;4983609;28;20037;-62
2022/09/23 09:27:48;;;;;;;2.50;1.60;;;15.30;99.90;;;;;;4984879;28;20072;-61
2022/09/23 09:30:16;;;;;;;6.63;1.70;;;15.30;99.90;;;;;;4985980;28;20041;-63
2022/09/23 09:32:58;;;;;;;5.82;2.20;;;15.30;99.90;;;;;;4982991;28;20041;-62
2022/09/23 09:35:28;;;;;;;3.20;1.90;;;15.30;99.90;;;;;;4986847;28;20515;-62
2022/09/23 09:37:54;;;;;;;3.08;1.92;;;15.40;99.90;;;;;;4985402;28;20034;-62
2022/09/23 09:40:20;;;;;;;2.50;1.45;;;15.50;99.90;;;;;;4986840;28;20046;-61
2022/09/23 09:42:48;;;;;;;3.70;1.33;;;15.60;99.90;;;;;;4986149;28;20059;-61
2022/09/23 09:45:43;;;;;;;3.95;1.73;;;15.50;99.90;;;;;;4988006;28;20129;-61
2022/09/23 09:48:16;;;;;;;5.38;2.25;;;15.50;99.90;;;;;;4971434;28;21276;-61
2022/09/23 09:50:48;;;;;;;5.65;1.77;;;15.70;99.90;;;;;;4986963;28;20075;-61
2022/09/23 09:53:13;;;;;;;1.92;1.73;;;15.80;99.90;;;;;;4987819;28;20038;-62
2022/09/23 09:55:40;;;;;;;5.28;1.92;;;16.00;99.90;;;;;;4986289;28;20505;-62
2022/09/23 09:58:10;;;;;;;5.50;2.22;;;16.20;99.90;;;;;;4984969;28;20034;-62
2022/09/23 10:00:41;;;;;;;5.88;1.95;;;16.30;99.90;;;;;;4984224;28;20458;-60
2022/09/23 10:03:13;;;;;;;4.80;2.60;;;16.40;99.90;;;;;;4988652;28;20031;-62
2022/09/23 10:05:47;;;;;;;2.05;1.63;;;16.50;99.90;;;;;;4985322;28;20109;-62
2022/09/23 10:08:33;;;;;;;3.33;2.00;;;16.60;99.90;;;;;;4985282;28;20069;-61
2022/09/23 10:11:03;;;;;;;7.20;2.53;;;16.70;99.90;;;;;;4985849;28;20026;-62
2022/09/23 10:13:30;;;;;;;3.40;2.00;;;16.90;99.90;;;;;;4984503;28;20038;-62
2022/09/23 10:16:02;;;;;;;3.83;1.80;;;16.90;99.90;;;;;;4989824;28;20036;-62
2022/09/23 10:18:46;;;;;;;3.78;1.50;;;17.00;99.90;;;;;;4985540;28;20474;-62
2022/09/23 10:21:15;;;;;;;4.47;2.00;;;17.00;99.90;;;;;;4985361;28;20046;-61
2022/09/23 10:23:47;;;;;;;4.95;1.45;;;17.10;99.90;;;;;;4983297;28;20026;-61
2022/09/23 10:26:16;;;;;;;;;;;17.20;99.90;;;;;;4989474;28;20049;-60
2022/09/23 10:28:47;;;;;;;1.73;1.00;;;17.30;99.90;;;;;;4987519;28;20326;-60
2022/09/23 10:31:25;;;;;;;2.40;1.08;;;17.40;99.90;;;;;;4990736;28;20088;-60
2022/09/23 10:33:53;;;;;;;2.78;1.63;;;17.40;99.90;;;;;;4984864;28;20062;-60
2022/09/23 10:36:20;;;;;;;2.05;0.98;;;17.60;99.90;;;;;;4986051;28;20386;-60
2022/09/23 10:38:50;;;;;;;1.70;0.80;;;17.70;99.90;;;;;;4986761;28;20121;-61
2022/09/23 10:47:18;;;;;;;0.60;0.50;;;18.20;99.90;;;;;;4989334;28;20221;-61
2022/09/23 10:50:02;;;;;;;0.98;0.63;;;17.80;99.90;;;;;;4987236;28;20042;-61
2022/09/23 10:53:10;;;;;;;1.00;0.60;;;17.70;99.90;;;;;;4985615;28;20529;-62
2022/09/23 10:55:56;;;;;;;1.13;0.80;;;17.80;99.90;;;;;;4974114;28;20066;-61
2022/09/23 10:58:43;;;;;;;0.65;0.52;;;17.80;99.90;;;;;;4983670;28;20116;-61
2022/09/23 11:01:29;;;;;;;1.10;0.65;;;17.80;99.90;;;;;;4990226;28;20034;-61
2022/09/23 11:04:01;;;;;;;0.80;0.68;;;17.80;99.90;;;;;;4986045;28;20022;-61
2022/09/23 11:06:52;;;;;;;2.47;0.82;;;17.80;99.90;;;;;;4985884;28;20371;-61
2022/09/23 11:09:27;;;;;;;2.33;0.90;;;17.70;99.90;;;;;;4984512;28;20030;-62
2022/09/23 11:12:27;;;;;;;2.40;1.05;;;17.50;99.90;;;;;;4986612;28;20387;-61
2022/09/23 11:15:20;;;;;;;3.67;0.98;;;17.40;99.90;;;;;;4982312;28;20032;-62
2022/09/23 11:18:28;;;;;;;0.50;0.50;;;17.40;99.90;;;;;;4983611;28;20398;-62
2022/09/23 11:21:19;;;;;;;2.88;0.70;;;17.30;99.90;;;;;;4968916;28;20039;-62
2022/09/23 11:24:07;;;;;;;3.47;0.60;;;17.20;99.90;;;;;;4965770;28;20085;-62
2022/09/23 11:27:02;;;;;;;2.33;0.93;;;17.20;99.90;;;;;;4965573;28;20039;-62
2022/09/23 11:29:54;;;;;;;2.10;1.10;;;17.20;99.90;;;;;;4958517;28;20038;-62
2022/09/23 11:32:38;;;;;;;2.05;1.13;;;17.10;99.90;;;;;;4964437;28;20042;-62
2022/09/23 11:35:40;;;;;;;2.20;0.90;;;17.00;99.90;;;;;;4967495;28;20101;-63
2022/09/23 11:38:09;;;;;;;4.28;1.30;;;17.00;99.90;;;;;;4924356;28;20503;-64
2022/09/23 11:40:41;;;;;;;2.78;1.40;;;16.90;99.90;;;;;;4966914;28;20422;-62
2022/09/23 11:43:34;;;;;;;3.67;0.80;;;16.90;99.90;;;;;;4951327;28;20039;-65
2022/09/23 11:46:03;;;;;;;1.70;1.13;;;16.70;99.90;;;;;;4964385;28;20051;-70
2022/09/23 11:48:38;;;;;;;2.15;1.13;;;16.70;99.90;;;;;;4964796;28;20035;-68
2022/09/23 11:51:30;;;;;;;1.40;0.73;;;16.50;99.90;;;;;;4971898;28;20513;-69
2022/09/23 11:54:18;;;;;;;3.33;0.90;;;16.40;99.90;;;;;;4986842;28;20058;-72
2022/09/23 11:57:00;;;;;;;3.25;1.08;;;16.30;99.90;;;;;;4985712;28;20033;-71
2022/09/23 11:59:41;;;;;;;6.65;1.30;;;16.30;99.90;;;;;;4984079;28;20030;-71
2022/09/23 12:02:13;;;;;;;2.08;1.00;;;16.30;99.90;;;;;;4984183;28;20116;-74
2022/09/23 12:04:43;;;;;;;4.68;1.45;;;16.20;99.90;;;;;;4988475;28;20030;-71
2022/09/23 12:07:42;;;;;;;1.35;0.82;;;16.30;99.90;;;;;;4987955;28;20019;-73
2022/09/23 12:10:10;;;;;;;4.28;1.10;;;16.20;99.90;;;;;;4966049;28;20043;-67
2022/09/23 12:12:58;;;;;;;3.22;1.08;;;16.20;99.90;;;;;;4960728;28;20038;-69
2022/09/23 12:15:33;;;;;;;1.63;0.65;;;16.20;99.90;;;;;;4965745;28;20035;-68
2022/09/23 12:18:14;;;;;;;3.17;1.15;;;16.10;99.90;;;;;;4963652;28;20081;-65
2022/09/23 12:21:15;;;;;;;5.10;1.30;;;16.10;99.90;;;;;;4960012;28;20141;-64
2022/09/23 12:24:07;;;;;;;0.80;0.70;;;16.20;99.90;;;;;;4941014;28;20094;-63
2022/09/23 12:26:34;;;;;;;6.03;1.48;;;16.20;99.90;;;;;;4960326;28;20487;-62
2022/09/23 12:29:04;;;;;;;3.28;0.80;;;16.30;99.90;;;;;;4965935;28;20022;-62
2022/09/23 12:31:34;;;;;;;1.55;0.63;;;16.30;99.90;;;;;;4963782;28;20050;-64
2022/09/23 12:34:04;;;;;;;2.90;1.05;;;16.40;99.90;;;;;;4960331;28;20034;-64
2022/09/23 12:36:34;;;;;;;2.22;0.82;;;16.50;99.90;;;;;;4964623;28;20470;-67
2022/09/23 12:39:13;;;;;;;1.40;0.70;;;16.40;99.90;;;;;;4966833;28;20134;-63
2022/09/23 12:41:50;;;;;;;2.17;1.00;;;16.40;99.90;;;;;;4957561;28;20027;-64
2022/09/23 12:44:27;;;;;;;0.90;0.50;;;16.40;99.90;;;;;;4950358;28;20059;-62
2022/09/23 12:47:12;;;;;;;4.32;0.80;;;16.30;99.90;;;;;;4974341;28;20512;-62
2022/09/23 12:49:38;;;;;;;4.00;1.33;;;16.20;99.90;;;;;;4984799;28;20509;-63
2022/09/23 12:52:24;;;;;;;1.90;0.65;;;16.20;99.90;;;;;;4986702;28;20026;-62
2022/09/23 12:54:54;;;;;;;3.25;1.20;;;16.10;99.90;;;;;;4983910;28;20510;-63
2022/09/23 12:57:32;;;;;;;1.77;1.05;;;16.20;99.90;;;;;;4974543;28;20032;-64
2022/09/23 13:00:11;;;;;;;2.05;1.17;;;16.20;99.90;;;;;;4985609;28;20192;-64
2022/09/23 13:08:22;;;;;;;3.05;0.60;;;16.00;99.90;;;;;;4989613;28;20438;-65
2022/09/23 13:10:58;;;;;;;2.60;0.82;;;15.90;99.90;;;;;;4991445;28;20037;-67
2022/09/23 13:13:34;;;;;;;1.92;0.52;;;15.80;99.90;;;;;;4989067;28;20038;-66
2022/09/23 13:16:30;;;;;;;0.45;0.30;;;15.80;99.90;;;;;;4988853;28;20364;-64
2022/09/23 13:19:02;;;;;;;1.33;0.63;;;15.70;99.90;;;;;;4984661;28;20042;-63
2022/09/23 13:21:43;;;;;;;3.90;2.13;;;15.90;99.90;;;;;;4988487;28;20040;-63
2022/09/23 13:24:12;;;;;;;4.47;2.78;;;16.00;99.90;;;;;;4990342;28;20026;-64
2022/09/23 13:27:01;;;;;;;5.85;3.72;;;16.10;99.90;;;;;;4989102;28;20034;-63
2022/09/23 13:29:42;;;;;;;9.32;4.82;;;16.10;99.90;;;;;;4985895;28;20034;-64
2022/09/23 13:32:17;;;;;;;8.80;5.60;;;16.10;99.90;;;;;;4991169;28;20095;-63